sensor_id;sensor_type;location;lat;lon;timestamp;temperature;humidity
3713;DHT22;1872;51.406;6.856;2023-11-19T00:02:19;10.40;99.90
3713;DHT22;1872;51.406;6.856;2023-11-19T00:04:44;10.50;99.90
3713;DHT22;1872;51.406;6.856;2023-11-19T00:07:10;10.50;99.90
3713;DHT22;1872;51.406;6.856;2023-11-19T00:09:38;10.60;99.90
3713;DHT22;1872;51.406;6.856;2023-11-19T00:12:05;10.60;99.90
3713;DHT22;1872;51.406;6.856;2023-11-19T00:14:31;10.60;99.90
3713;DHT22;1872;51.406;6.856;2023-11-19T00:16:57;10.70;99.90
3713;DHT22;1872;51.406;6.856;2023-11-19T00:19:23;10.70;99.90
3713;DHT22;1872;51.406;6.856;2023-11-19T00:21:49;10.70;99.90
3713;DHT22;1872;51.406;6.856;2023-11-19T00:24:15;10.70;99.90
3713;DHT22;1872;51.406;6.856;2023-11-19T00:26:42;10.70;99.90
3713;DHT22;1872;51.406;6.856;2023-11-19T00:29:08;10.70;99.90
3713;DHT22;1872;51.406;6.856;2023-11-19T00:31:34;10.70;99.90
3713;DHT22;1872;51.406;6.856;2023-11-19T00:33:59;10.70;99.90
3713;DHT22;1872;51.406;6.856;2023-11-19T00:36:25;10.80;99.90
3713;DHT22;1872;51.406;6.856;2023-11-19T00:38:51;10.70;99.90
3713;DHT22;1872;51.406;6.856;2023-11-19T00:41:18;10.80;99.90
3713;DHT22;1872;51.406;6.856;2023-11-19T00:43:45;10.80;99.90
3713;DHT22;1872;51.406;6.856;2023-11-19T00:46:11;10.80;99.90
3713;DHT22;1872;51.406;6.856;2023-11-19T00:48:37;10.80;99.90
3713;DHT22;1872;51.406;6.856;2023-11-19T00:51:06;10.80;99.90
3713;DHT22;1872;51.406;6.856;2023-11-19T00:53:32;10.80;99.90
3713;DHT22;1872;51.406;6.856;2023-11-19T00:55:59;10.80;99.90
3713;DHT22;1872;51.406;6.856;2023-11-19T00:58:25;10.80;99.90
3713;DHT22;1872;51.406;6.856;2023-11-19T01:00:51;10.90;99.90
3713;DHT22;1872;51.406;6.856;2023-11-19T01:03:17;10.90;99.90
3713;DHT22;1872;51.406;6.856;2023-11-19T01:05:42;10.90;99.90
3713;DHT22;1872;51.406;6.856;2023-11-19T01:08:09;10.90;99.90
3713;DHT22;1872;51.406;6.856;2023-11-19T01:10:37;11.00;99.90
3713;DHT22;1872;51.406;6.856;2023-11-19T01:13:02;11.10;99.90
3713;DHT22;1872;51.406;6.856;2023-11-19T01:15:31;11.20;99.90
3713;DHT22;1872;51.406;6.856;2023-11-19T01:17:57;11.20;99.90
3713;DHT22;1872;51.406;6.856;2023-11-19T01:20:23;11.30;99.90
3713;DHT22;1872;51.406;6.856;2023-11-19T01:22:49;11.30;99.90
3713;DHT22;1872;51.406;6.856;2023-11-19T01:25:15;11.40;99.90
3713;DHT22;1872;51.406;6.856;2023-11-19T01:27:40;11.40;99.90
3713;DHT22;1872;51.406;6.856;2023-11-19T01:30:06;11.40;99.90
3713;DHT22;1872;51.406;6.856;2023-11-19T01:32:38;11.40;99.90
3713;DHT22;1872;51.406;6.856;2023-11-19T01:35:04;11.50;99.90
3713;DHT22;1872;51.406;6.856;2023-11-19T01:37:30;11.50;99.90
3713;DHT22;1872;51.406;6.856;2023-11-19T01:39:57;11.60;99.90
3713;DHT22;1872;51.406;6.856;2023-11-19T01:42:23;11.60;99.90
3713;DHT22;1872;51.406;6.856;2023-11-19T01:45:00;11.60;99.90
3713;DHT22;1872;51.406;6.856;2023-11-19T01:47:28;11.60;99.90
3713;DHT22;1872;51.406;6.856;2023-11-19T01:49:56;11.60;99.90
3713;DHT22;1872;51.406;6.856;2023-11-19T01:52:23;11.60;99.90
3713;DHT22;1872;51.406;6.856;2023-11-19T01:54:49;11.70;99.90
3713;DHT22;1872;51.406;6.856;2023-11-19T01:57:15;11.70;99.90
3713;DHT22;1872;51.406;6.856;2023-11-19T01:59:41;11.80;99.90
3713;DHT22;1872;51.406;6.856;2023-11-19T02:02:07;11.80;99.90
3713;DHT22;1872;51.406;6.856;2023-11-19T02:04:33;11.80;99.90
3713;DHT22;1872;51.406;6.856;2023-11-19T02:07:01;11.80;99.90
3713;DHT22;1872;51.406;6.856;2023-11-19T02:09:27;11.90;99.90
3713;DHT22;1872;51.406;6.856;2023-11-19T02:11:53;11.90;99.90
3713;DHT22;1872;51.406;6.856;2023-11-19T02:14:23;11.90;99.90
3713;DHT22;1872;51.406;6.856;2023-11-19T02:16:51;11.90;99.90
3713;DHT22;1872;51.406;6.856;2023-11-19T02:19:19;11.90;99.90
3713;DHT22;1872;51.406;6.856;2023-11-19T02:21:45;11.90;99.90
3713;DHT22;1872;51.406;6.856;2023-11-19T02:24:12;11.90;99.90
3713;DHT22;1872;51.406;6.856;2023-11-19T02:26:47;11.90;99.90
3713;DHT22;1872;51.406;6.856;2023-11-19T02:29:16;12.00;99.90
3713;DHT22;1872;51.406;6.856;2023-11-19T02:31:42;12.00;99.90
3713;DHT22;1872;51.406;6.856;2023-11-19T02:34:10;12.00;99.90
3713;DHT22;1872;51.406;6.856;2023-11-19T02:36:37;12.00;99.90
3713;DHT22;1872;51.406;6.856;2023-11-19T02:39:03;12.00;99.90
3713;DHT22;1872;51.406;6.856;2023-11-19T02:41:29;12.00;99.90
3713;DHT22;1872;51.406;6.856;2023-11-19T02:43:55;12.00;99.90
3713;DHT22;1872;51.406;6.856;2023-11-19T02:46:21;12.00;99.90
3713;DHT22;1872;51.406;6.856;2023-11-19T02:48:46;12.00;99.90
3713;DHT22;1872;51.406;6.856;2023-11-19T02:51:12;12.00;99.90
3713;DHT22;1872;51.406;6.856;2023-11-19T02:53:38;12.10;99.90
3713;DHT22;1872;51.406;6.856;2023-11-19T02:56:05;12.10;99.90
3713;DHT22;1872;51.406;6.856;2023-11-19T02:58:44;12.20;99.90
3713;DHT22;1872;51.406;6.856;2023-11-19T03:01:10;12.20;99.90
3713;DHT22;1872;51.406;6.856;2023-11-19T03:03:44;12.30;99.90
3713;DHT22;1872;51.406;6.856;2023-11-19T03:06:14;12.30;99.90
3713;DHT22;1872;51.406;6.856;2023-11-19T03:08:40;12.30;99.90
3713;DHT22;1872;51.406;6.856;2023-11-19T03:11:05;12.30;99.90
3713;DHT22;1872;51.406;6.856;2023-11-19T03:13:31;12.20;99.90
3713;DHT22;1872;51.406;6.856;2023-11-19T03:15:57;12.30;99.90
3713;DHT22;1872;51.406;6.856;2023-11-19T03:18:22;12.30;99.90
3713;DHT22;1872;51.406;6.856;2023-11-19T03:20:48;12.30;99.90
3713;DHT22;1872;51.406;6.856;2023-11-19T03:23:15;12.30;99.90
3713;DHT22;1872;51.406;6.856;2023-11-19T03:25:40;12.30;99.90
3713;DHT22;1872;51.406;6.856;2023-11-19T03:28:09;12.30;99.90
3713;DHT22;1872;51.406;6.856;2023-11-19T03:30:37;12.30;99.90
3713;DHT22;1872;51.406;6.856;2023-11-19T03:33:03;12.30;99.90
3713;DHT22;1872;51.406;6.856;2023-11-19T03:35:29;12.30;99.90
3713;DHT22;1872;51.406;6.856;2023-11-19T03:37:55;12.30;99.90
3713;DHT22;1872;51.406;6.856;2023-11-19T03:40:21;12.30;99.90
3713;DHT22;1872;51.406;6.856;2023-11-19T03:42:47;12.40;99.90
3713;DHT22;1872;51.406;6.856;2023-11-19T03:45:13;12.40;99.90
3713;DHT22;1872;51.406;6.856;2023-11-19T03:47:39;12.30;99.90
3713;DHT22;1872;51.406;6.856;2023-11-19T03:50:06;12.30;99.90
3713;DHT22;1872;51.406;6.856;2023-11-19T03:52:33;12.20;99.90
3713;DHT22;1872;51.406;6.856;2023-11-19T03:54:59;12.20;99.90
3713;DHT22;1872;51.406;6.856;2023-11-19T03:57:24;12.20;99.90
3713;DHT22;1872;51.406;6.856;2023-11-19T03:59:50;12.10;99.90
3713;DHT22;1872;51.406;6.856;2023-11-19T04:02:16;12.10;99.90
3713;DHT22;1872;51.406;6.856;2023-11-19T04:04:42;12.10;99.90
3713;DHT22;1872;51.406;6.856;2023-11-19T04:07:08;12.00;99.90
3713;DHT22;1872;51.406;6.856;2023-11-19T04:09:33;12.00;99.90
3713;DHT22;1872;51.406;6.856;2023-11-19T04:12:00;12.00;99.90
3713;DHT22;1872;51.406;6.856;2023-11-19T04:14:26;12.00;99.90
3713;DHT22;1872;51.406;6.856;2023-11-19T04:16:53;11.90;99.90
3713;DHT22;1872;51.406;6.856;2023-11-19T04:19:19;12.00;99.90
3713;DHT22;1872;51.406;6.856;2023-11-19T04:21:45;11.90;99.90
3713;DHT22;1872;51.406;6.856;2023-11-19T04:24:11;11.90;99.90
3713;DHT22;1872;51.406;6.856;2023-11-19T04:26:45;11.90;99.90
3713;DHT22;1872;51.406;6.856;2023-11-19T04:29:14;12.00;99.90
3713;DHT22;1872;51.406;6.856;2023-11-19T04:31:41;11.90;99.90
3713;DHT22;1872;51.406;6.856;2023-11-19T04:34:07;11.90;99.90
3713;DHT22;1872;51.406;6.856;2023-11-19T04:36:33;12.00;99.90
3713;DHT22;1872;51.406;6.856;2023-11-19T04:39:02;12.00;99.90
3713;DHT22;1872;51.406;6.856;2023-11-19T04:41:28;12.00;99.90
3713;DHT22;1872;51.406;6.856;2023-11-19T04:43:54;12.00;99.90
3713;DHT22;1872;51.406;6.856;2023-11-19T04:46:19;12.00;99.90
3713;DHT22;1872;51.406;6.856;2023-11-19T04:48:45;11.90;99.90
3713;DHT22;1872;51.406;6.856;2023-11-19T04:51:11;11.90;99.90
3713;DHT22;1872;51.406;6.856;2023-11-19T04:53:36;11.90;99.90
3713;DHT22;1872;51.406;6.856;2023-11-19T04:56:10;11.80;99.90
3713;DHT22;1872;51.406;6.856;2023-11-19T04:58:37;11.80;99.90
3713;DHT22;1872;51.406;6.856;2023-11-19T05:01:03;11.80;99.90
3713;DHT22;1872;51.406;6.856;2023-11-19T05:03:30;11.80;99.90
3713;DHT22;1872;51.406;6.856;2023-11-19T05:05:57;11.80;99.90
3713;DHT22;1872;51.406;6.856;2023-11-19T05:08:22;11.80;99.90
3713;DHT22;1872;51.406;6.856;2023-11-19T05:10:48;11.80;99.90
3713;DHT22;1872;51.406;6.856;2023-11-19T05:13:13;11.90;99.90
3713;DHT22;1872;51.406;6.856;2023-11-19T05:15:40;11.80;99.90
3713;DHT22;1872;51.406;6.856;2023-11-19T05:18:06;11.80;99.90
3713;DHT22;1872;51.406;6.856;2023-11-19T05:20:32;11.90;99.90
3713;DHT22;1872;51.406;6.856;2023-11-19T05:22:58;11.90;99.90
3713;DHT22;1872;51.406;6.856;2023-11-19T05:25:26;11.90;99.90
3713;DHT22;1872;51.406;6.856;2023-11-19T05:27:52;12.00;99.90
3713;DHT22;1872;51.406;6.856;2023-11-19T05:30:18;12.00;99.90
3713;DHT22;1872;51.406;6.856;2023-11-19T05:32:43;12.00;99.90
3713;DHT22;1872;51.406;6.856;2023-11-19T05:35:09;12.10;99.90
3713;DHT22;1872;51.406;6.856;2023-11-19T05:37:36;12.20;99.90
3713;DHT22;1872;51.406;6.856;2023-11-19T05:40:02;12.10;99.90
3713;DHT22;1872;51.406;6.856;2023-11-19T05:42:29;12.20;99.90
3713;DHT22;1872;51.406;6.856;2023-11-19T05:44:55;12.20;99.90
3713;DHT22;1872;51.406;6.856;2023-11-19T05:47:20;12.20;99.90
3713;DHT22;1872;51.406;6.856;2023-11-19T05:49:47;12.20;99.90
3713;DHT22;1872;51.406;6.856;2023-11-19T05:52:13;12.20;99.90
3713;DHT22;1872;51.406;6.856;2023-11-19T05:54:38;12.30;99.90
3713;DHT22;1872;51.406;6.856;2023-11-19T05:57:06;12.20;99.90
3713;DHT22;1872;51.406;6.856;2023-11-19T05:59:35;12.20;99.90
3713;DHT22;1872;51.406;6.856;2023-11-19T06:02:01;12.20;99.90
3713;DHT22;1872;51.406;6.856;2023-11-19T06:04:28;12.20;99.90
3713;DHT22;1872;51.406;6.856;2023-11-19T06:06:53;12.10;99.90
3713;DHT22;1872;51.406;6.856;2023-11-19T06:09:21;12.10;99.90
3713;DHT22;1872;51.406;6.856;2023-11-19T06:11:51;12.10;99.90
3713;DHT22;1872;51.406;6.856;2023-11-19T06:14:18;12.10;99.90
3713;DHT22;1872;51.406;6.856;2023-11-19T06:16:44;12.10;99.90
3713;DHT22;1872;51.406;6.856;2023-11-19T06:19:09;12.10;99.90
3713;DHT22;1872;51.406;6.856;2023-11-19T06:21:36;12.10;99.90
3713;DHT22;1872;51.406;6.856;2023-11-19T06:24:02;12.10;99.90
3713;DHT22;1872;51.406;6.856;2023-11-19T06:26:28;12.10;99.90
3713;DHT22;1872;51.406;6.856;2023-11-19T06:28:54;12.10;99.90
3713;DHT22;1872;51.406;6.856;2023-11-19T06:31:20;12.20;99.90
3713;DHT22;1872;51.406;6.856;2023-11-19T06:33:46;12.30;99.90
3713;DHT22;1872;51.406;6.856;2023-11-19T06:36:15;12.40;99.90
3713;DHT22;1872;51.406;6.856;2023-11-19T06:38:42;12.40;99.90
3713;DHT22;1872;51.406;6.856;2023-11-19T06:41:09;12.40;99.90
3713;DHT22;1872;51.406;6.856;2023-11-19T06:43:35;12.40;99.90
3713;DHT22;1872;51.406;6.856;2023-11-19T06:46:02;12.30;99.90
3713;DHT22;1872;51.406;6.856;2023-11-19T06:48:27;12.30;99.90
3713;DHT22;1872;51.406;6.856;2023-11-19T06:50:54;12.20;99.90
3713;DHT22;1872;51.406;6.856;2023-11-19T06:53:19;12.10;99.90
3713;DHT22;1872;51.406;6.856;2023-11-19T06:55:45;12.00;99.90
3713;DHT22;1872;51.406;6.856;2023-11-19T06:58:11;12.00;99.90
3713;DHT22;1872;51.406;6.856;2023-11-19T07:00:37;11.90;99.90
3713;DHT22;1872;51.406;6.856;2023-11-19T07:03:03;11.80;99.90
3713;DHT22;1872;51.406;6.856;2023-11-19T07:05:29;11.70;99.90
3713;DHT22;1872;51.406;6.856;2023-11-19T07:07:55;11.70;99.90
3713;DHT22;1872;51.406;6.856;2023-11-19T07:10:21;11.70;99.90
3713;DHT22;1872;51.406;6.856;2023-11-19T07:12:46;11.70;99.90
3713;DHT22;1872;51.406;6.856;2023-11-19T07:15:12;11.60;99.90
3713;DHT22;1872;51.406;6.856;2023-11-19T07:17:39;11.60;99.90
3713;DHT22;1872;51.406;6.856;2023-11-19T07:20:05;11.50;99.90
3713;DHT22;1872;51.406;6.856;2023-11-19T07:22:31;11.50;99.90
3713;DHT22;1872;51.406;6.856;2023-11-19T07:24:57;11.40;99.90
3713;DHT22;1872;51.406;6.856;2023-11-19T07:27:23;11.40;99.90
3713;DHT22;1872;51.406;6.856;2023-11-19T07:29:52;11.40;99.90
3713;DHT22;1872;51.406;6.856;2023-11-19T07:32:18;11.40;99.90
3713;DHT22;1872;51.406;6.856;2023-11-19T07:34:44;11.40;99.90
3713;DHT22;1872;51.406;6.856;2023-11-19T07:37:12;11.40;99.90
3713;DHT22;1872;51.406;6.856;2023-11-19T07:39:37;11.40;99.90
3713;DHT22;1872;51.406;6.856;2023-11-19T07:42:14;11.40;99.90
3713;DHT22;1872;51.406;6.856;2023-11-19T07:44:40;11.40;99.90
3713;DHT22;1872;51.406;6.856;2023-11-19T07:47:05;11.40;99.90
3713;DHT22;1872;51.406;6.856;2023-11-19T07:49:31;11.40;99.90
3713;DHT22;1872;51.406;6.856;2023-11-19T07:51:57;11.30;99.90
3713;DHT22;1872;51.406;6.856;2023-11-19T07:54:22;11.30;99.90
3713;DHT22;1872;51.406;6.856;2023-11-19T07:56:48;11.40;99.90
3713;DHT22;1872;51.406;6.856;2023-11-19T07:59:15;11.30;99.90
3713;DHT22;1872;51.406;6.856;2023-11-19T08:01:41;11.40;99.90
3713;DHT22;1872;51.406;6.856;2023-11-19T08:04:07;11.40;99.90
3713;DHT22;1872;51.406;6.856;2023-11-19T08:06:32;11.40;99.90
3713;DHT22;1872;51.406;6.856;2023-11-19T08:08:58;11.50;99.90
3713;DHT22;1872;51.406;6.856;2023-11-19T08:11:24;11.50;99.90
3713;DHT22;1872;51.406;6.856;2023-11-19T08:13:50;11.50;99.90
3713;DHT22;1872;51.406;6.856;2023-11-19T08:16:16;11.70;99.90
3713;DHT22;1872;51.406;6.856;2023-11-19T08:18:45;11.70;99.90
3713;DHT22;1872;51.406;6.856;2023-11-19T08:21:10;11.70;99.90
3713;DHT22;1872;51.406;6.856;2023-11-19T08:23:36;11.80;99.90
3713;DHT22;1872;51.406;6.856;2023-11-19T08:26:02;12.00;99.90
3713;DHT22;1872;51.406;6.856;2023-11-19T08:28:28;12.20;99.90
3713;DHT22;1872;51.406;6.856;2023-11-19T08:30:54;12.30;99.90
3713;DHT22;1872;51.406;6.856;2023-11-19T08:33:20;12.30;99.90
3713;DHT22;1872;51.406;6.856;2023-11-19T08:35:48;12.40;99.90
3713;DHT22;1872;51.406;6.856;2023-11-19T08:38:13;12.50;99.90
3713;DHT22;1872;51.406;6.856;2023-11-19T08:40:39;12.60;99.90
3713;DHT22;1872;51.406;6.856;2023-11-19T08:43:05;12.60;99.90
3713;DHT22;1872;51.406;6.856;2023-11-19T08:45:31;12.60;99.90
3713;DHT22;1872;51.406;6.856;2023-11-19T08:47:57;12.50;99.90
3713;DHT22;1872;51.406;6.856;2023-11-19T08:50:23;12.50;99.90
3713;DHT22;1872;51.406;6.856;2023-11-19T08:52:49;12.40;99.90
3713;DHT22;1872;51.406;6.856;2023-11-19T08:55:15;12.40;99.90
3713;DHT22;1872;51.406;6.856;2023-11-19T08:57:40;12.40;99.90
3713;DHT22;1872;51.406;6.856;2023-11-19T09:00:07;12.40;99.90
3713;DHT22;1872;51.406;6.856;2023-11-19T09:02:39;12.40;99.90
3713;DHT22;1872;51.406;6.856;2023-11-19T09:05:06;12.40;99.90
3713;DHT22;1872;51.406;6.856;2023-11-19T09:07:34;12.40;99.90
3713;DHT22;1872;51.406;6.856;2023-11-19T09:10:00;12.50;99.90
3713;DHT22;1872;51.406;6.856;2023-11-19T09:12:26;12.50;99.90
3713;DHT22;1872;51.406;6.856;2023-11-19T09:14:52;12.60;99.90
3713;DHT22;1872;51.406;6.856;2023-11-19T09:17:18;12.60;99.90
3713;DHT22;1872;51.406;6.856;2023-11-19T09:19:44;12.70;99.90
3713;DHT22;1872;51.406;6.856;2023-11-19T09:22:10;12.80;99.90
3713;DHT22;1872;51.406;6.856;2023-11-19T09:24:35;12.80;99.90
3713;DHT22;1872;51.406;6.856;2023-11-19T09:27:01;13.10;99.90
3713;DHT22;1872;51.406;6.856;2023-11-19T09:29:29;13.10;99.90
3713;DHT22;1872;51.406;6.856;2023-11-19T09:31:56;13.20;99.90
3713;DHT22;1872;51.406;6.856;2023-11-19T09:34:22;13.20;99.90
3713;DHT22;1872;51.406;6.856;2023-11-19T09:36:47;13.30;99.90
3713;DHT22;1872;51.406;6.856;2023-11-19T09:39:13;13.30;99.90
3713;DHT22;1872;51.406;6.856;2023-11-19T09:41:40;13.20;99.90
3713;DHT22;1872;51.406;6.856;2023-11-19T09:44:08;13.20;99.90
3713;DHT22;1872;51.406;6.856;2023-11-19T09:46:34;13.30;99.90
3713;DHT22;1872;51.406;6.856;2023-11-19T09:49:01;13.30;99.90
3713;DHT22;1872;51.406;6.856;2023-11-19T09:51:28;13.30;99.90
3713;DHT22;1872;51.406;6.856;2023-11-19T09:53:54;13.20;99.90
3713;DHT22;1872;51.406;6.856;2023-11-19T09:56:19;13.30;99.90
3713;DHT22;1872;51.406;6.856;2023-11-19T09:58:45;13.30;99.90
3713;DHT22;1872;51.406;6.856;2023-11-19T10:01:11;13.30;99.90
3713;DHT22;1872;51.406;6.856;2023-11-19T10:03:39;13.30;99.90
3713;DHT22;1872;51.406;6.856;2023-11-19T10:06:10;13.30;99.90
3713;DHT22;1872;51.406;6.856;2023-11-19T10:08:39;13.30;99.90
3713;DHT22;1872;51.406;6.856;2023-11-19T10:11:08;13.40;99.90
3713;DHT22;1872;51.406;6.856;2023-11-19T10:13:40;13.50;99.90
3713;DHT22;1872;51.406;6.856;2023-11-19T10:16:12;13.50;99.90
3713;DHT22;1872;51.406;6.856;2023-11-19T10:18:49;13.50;99.90
3713;DHT22;1872;51.406;6.856;2023-11-19T10:21:18;13.40;99.90
3713;DHT22;1872;51.406;6.856;2023-11-19T10:23:54;13.40;99.90
3713;DHT22;1872;51.406;6.856;2023-11-19T10:26:21;13.40;99.90
3713;DHT22;1872;51.406;6.856;2023-11-19T10:28:50;13.50;99.90
3713;DHT22;1872;51.406;6.856;2023-11-19T10:31:17;13.40;99.90
3713;DHT22;1872;51.406;6.856;2023-11-19T10:33:44;13.40;99.90
3713;DHT22;1872;51.406;6.856;2023-11-19T10:36:11;13.50;99.90
3713;DHT22;1872;51.406;6.856;2023-11-19T10:38:40;13.50;99.90
3713;DHT22;1872;51.406;6.856;2023-11-19T10:41:06;13.60;99.90
3713;DHT22;1872;51.406;6.856;2023-11-19T10:43:43;13.70;99.90
3713;DHT22;1872;51.406;6.856;2023-11-19T10:46:11;13.70;99.90
3713;DHT22;1872;51.406;6.856;2023-11-19T10:48:38;13.70;99.90
3713;DHT22;1872;51.406;6.856;2023-11-19T10:51:05;13.70;99.90
3713;DHT22;1872;51.406;6.856;2023-11-19T10:53:36;13.70;99.90
3713;DHT22;1872;51.406;6.856;2023-11-19T10:56:05;13.70;99.90
3713;DHT22;1872;51.406;6.856;2023-11-19T10:58:33;13.70;99.90
3713;DHT22;1872;51.406;6.856;2023-11-19T11:01:02;13.70;99.90
3713;DHT22;1872;51.406;6.856;2023-11-19T11:03:39;13.70;99.90
3713;DHT22;1872;51.406;6.856;2023-11-19T11:06:05;13.70;99.90
3713;DHT22;1872;51.406;6.856;2023-11-19T11:08:32;13.80;99.90
3713;DHT22;1872;51.406;6.856;2023-11-19T11:10:59;13.90;99.90
3713;DHT22;1872;51.406;6.856;2023-11-19T11:13:26;13.90;99.90
3713;DHT22;1872;51.406;6.856;2023-11-19T11:15:55;14.00;99.90
3713;DHT22;1872;51.406;6.856;2023-11-19T11:18:23;14.10;99.90
3713;DHT22;1872;51.406;6.856;2023-11-19T11:20:58;14.10;99.90
3713;DHT22;1872;51.406;6.856;2023-11-19T11:29:10;14.30;99.90
3713;DHT22;1872;51.406;6.856;2023-11-19T11:32:00;14.30;99.90
3713;DHT22;1872;51.406;6.856;2023-11-19T11:37:45;14.40;99.90
3713;DHT22;1872;51.406;6.856;2023-11-19T11:40:17;14.40;99.90
3713;DHT22;1872;51.406;6.856;2023-11-19T11:42:44;14.40;99.90
3713;DHT22;1872;51.406;6.856;2023-11-19T11:45:11;14.40;99.90
3713;DHT22;1872;51.406;6.856;2023-11-19T11:50:15;14.40;99.90
3713;DHT22;1872;51.406;6.856;2023-11-19T11:58:02;14.30;99.90
3713;DHT22;1872;51.406;6.856;2023-11-19T12:00:31;14.30;99.90
3713;DHT22;1872;51.406;6.856;2023-11-19T12:02:59;14.20;99.90
3713;DHT22;1872;51.406;6.856;2023-11-19T12:05:24;14.20;99.90
3713;DHT22;1872;51.406;6.856;2023-11-19T12:08:01;14.20;99.90
3713;DHT22;1872;51.406;6.856;2023-11-19T12:10:31;14.30;99.90
3713;DHT22;1872;51.406;6.856;2023-11-19T12:13:01;14.30;99.90
3713;DHT22;1872;51.406;6.856;2023-11-19T12:15:27;14.40;99.90
3713;DHT22;1872;51.406;6.856;2023-11-19T12:17:54;14.40;99.90
3713;DHT22;1872;51.406;6.856;2023-11-19T12:20:22;14.50;99.90
3713;DHT22;1872;51.406;6.856;2023-11-19T12:22:50;14.50;99.90
3713;DHT22;1872;51.406;6.856;2023-11-19T12:25:17;14.50;99.90
3713;DHT22;1872;51.406;6.856;2023-11-19T12:27:47;14.40;99.90
3713;DHT22;1872;51.406;6.856;2023-11-19T12:30:17;14.40;99.90
3713;DHT22;1872;51.406;6.856;2023-11-19T12:32:46;14.40;99.90
3713;DHT22;1872;51.406;6.856;2023-11-19T12:35:12;14.40;99.90
3713;DHT22;1872;51.406;6.856;2023-11-19T12:37:42;14.30;99.90
3713;DHT22;1872;51.406;6.856;2023-11-19T12:40:13;14.30;99.90
3713;DHT22;1872;51.406;6.856;2023-11-19T12:42:39;14.20;99.90
3713;DHT22;1872;51.406;6.856;2023-11-19T12:45:05;14.10;99.90
3713;DHT22;1872;51.406;6.856;2023-11-19T12:47:36;14.10;99.90
3713;DHT22;1872;51.406;6.856;2023-11-19T12:50:02;14.10;99.90
3713;DHT22;1872;51.406;6.856;2023-11-19T12:52:29;14.10;99.90
3713;DHT22;1872;51.406;6.856;2023-11-19T12:54:55;14.20;99.90
3713;DHT22;1872;51.406;6.856;2023-11-19T12:57:21;14.20;99.90
3713;DHT22;1872;51.406;6.856;2023-11-19T13:00:00;14.10;99.90
3713;DHT22;1872;51.406;6.856;2023-11-19T13:02:48;14.10;99.90
3713;DHT22;1872;51.406;6.856;2023-11-19T13:05:29;14.00;99.90
3713;DHT22;1872;51.406;6.856;2023-11-19T13:08:00;13.90;99.90
3713;DHT22;1872;51.406;6.856;2023-11-19T13:10:27;13.80;99.90
3713;DHT22;1872;51.406;6.856;2023-11-19T13:13:07;13.70;99.90
3713;DHT22;1872;51.406;6.856;2023-11-19T13:15:34;13.70;99.90
3713;DHT22;1872;51.406;6.856;2023-11-19T13:18:01;13.50;99.90
3713;DHT22;1872;51.406;6.856;2023-11-19T13:20:27;13.40;99.90
3713;DHT22;1872;51.406;6.856;2023-11-19T13:23:04;13.40;99.90
3713;DHT22;1872;51.406;6.856;2023-11-19T13:25:30;13.30;99.90
3713;DHT22;1872;51.406;6.856;2023-11-19T13:27:56;13.20;99.90
3713;DHT22;1872;51.406;6.856;2023-11-19T13:30:23;13.10;99.90
3713;DHT22;1872;51.406;6.856;2023-11-19T13:32:49;13.00;99.90
3713;DHT22;1872;51.406;6.856;2023-11-19T13:35:16;12.90;99.90
3713;DHT22;1872;51.406;6.856;2023-11-19T13:37:43;12.80;99.90
3713;DHT22;1872;51.406;6.856;2023-11-19T13:40:09;12.90;99.90
3713;DHT22;1872;51.406;6.856;2023-11-19T13:42:39;12.90;99.90
3713;DHT22;1872;51.406;6.856;2023-11-19T13:45:12;12.90;99.90
3713;DHT22;1872;51.406;6.856;2023-11-19T13:47:39;12.90;99.90
3713;DHT22;1872;51.406;6.856;2023-11-19T13:50:12;13.00;99.90
3713;DHT22;1872;51.406;6.856;2023-11-19T13:52:38;13.00;99.90
3713;DHT22;1872;51.406;6.856;2023-11-19T13:55:06;13.10;99.90
3713;DHT22;1872;51.406;6.856;2023-11-19T13:57:32;13.10;99.90
3713;DHT22;1872;51.406;6.856;2023-11-19T13:59:58;13.10;99.90
3713;DHT22;1872;51.406;6.856;2023-11-19T14:02:24;13.20;99.90
3713;DHT22;1872;51.406;6.856;2023-11-19T14:04:50;13.20;99.90
3713;DHT22;1872;51.406;6.856;2023-11-19T14:07:16;13.20;99.90
3713;DHT22;1872;51.406;6.856;2023-11-19T14:09:44;13.20;99.90
3713;DHT22;1872;51.406;6.856;2023-11-19T14:12:11;13.20;99.90
3713;DHT22;1872;51.406;6.856;2023-11-19T14:14:39;13.20;99.90
3713;DHT22;1872;51.406;6.856;2023-11-19T14:17:05;13.30;99.90
3713;DHT22;1872;51.406;6.856;2023-11-19T14:19:30;13.30;99.90
3713;DHT22;1872;51.406;6.856;2023-11-19T14:21:56;13.20;99.90
3713;DHT22;1872;51.406;6.856;2023-11-19T14:24:24;13.20;99.90
3713;DHT22;1872;51.406;6.856;2023-11-19T14:26:51;13.10;99.90
3713;DHT22;1872;51.406;6.856;2023-11-19T14:29:17;13.00;99.90
3713;DHT22;1872;51.406;6.856;2023-11-19T14:31:43;12.90;99.90
3713;DHT22;1872;51.406;6.856;2023-11-19T14:34:11;12.80;99.90
3713;DHT22;1872;51.406;6.856;2023-11-19T14:36:37;12.70;99.90
3713;DHT22;1872;51.406;6.856;2023-11-19T14:39:02;12.80;99.90
3713;DHT22;1872;51.406;6.856;2023-11-19T14:41:29;12.70;99.90
3713;DHT22;1872;51.406;6.856;2023-11-19T14:43:55;12.60;99.90
3713;DHT22;1872;51.406;6.856;2023-11-19T14:46:20;12.60;99.90
3713;DHT22;1872;51.406;6.856;2023-11-19T14:48:47;12.60;99.90
3713;DHT22;1872;51.406;6.856;2023-11-19T14:51:12;12.60;99.90
3713;DHT22;1872;51.406;6.856;2023-11-19T14:53:38;12.60;99.90
3713;DHT22;1872;51.406;6.856;2023-11-19T14:56:04;12.80;99.90
3713;DHT22;1872;51.406;6.856;2023-11-19T14:58:32;13.00;99.90
3713;DHT22;1872;51.406;6.856;2023-11-19T15:00:58;13.10;99.90
3713;DHT22;1872;51.406;6.856;2023-11-19T15:03:23;13.30;99.90
3713;DHT22;1872;51.406;6.856;2023-11-19T15:05:52;13.20;99.90
3713;DHT22;1872;51.406;6.856;2023-11-19T15:08:17;13.20;99.90
3713;DHT22;1872;51.406;6.856;2023-11-19T15:10:44;13.10;99.90
3713;DHT22;1872;51.406;6.856;2023-11-19T15:13:11;12.90;99.90
3713;DHT22;1872;51.406;6.856;2023-11-19T15:15:36;12.80;99.90
3713;DHT22;1872;51.406;6.856;2023-11-19T15:18:05;12.60;99.90
3713;DHT22;1872;51.406;6.856;2023-11-19T15:20:35;12.60;99.90
3713;DHT22;1872;51.406;6.856;2023-11-19T15:23:04;12.50;99.90
3713;DHT22;1872;51.406;6.856;2023-11-19T15:25:29;12.40;99.90
3713;DHT22;1872;51.406;6.856;2023-11-19T15:27:55;12.30;99.90
3713;DHT22;1872;51.406;6.856;2023-11-19T15:30:21;12.30;99.90
3713;DHT22;1872;51.406;6.856;2023-11-19T15:32:47;12.20;99.90
3713;DHT22;1872;51.406;6.856;2023-11-19T15:35:13;12.20;99.90
3713;DHT22;1872;51.406;6.856;2023-11-19T15:37:39;12.10;99.90
3713;DHT22;1872;51.406;6.856;2023-11-19T15:40:07;12.10;99.90
3713;DHT22;1872;51.406;6.856;2023-11-19T15:42:36;12.00;99.90
3713;DHT22;1872;51.406;6.856;2023-11-19T15:45:02;12.00;99.90
3713;DHT22;1872;51.406;6.856;2023-11-19T15:47:32;11.90;99.90
3713;DHT22;1872;51.406;6.856;2023-11-19T15:49:57;11.90;99.90
3713;DHT22;1872;51.406;6.856;2023-11-19T15:52:23;12.10;99.90
3713;DHT22;1872;51.406;6.856;2023-11-19T15:54:49;12.10;99.90
3713;DHT22;1872;51.406;6.856;2023-11-19T15:57:18;12.10;99.90
3713;DHT22;1872;51.406;6.856;2023-11-19T15:59:49;12.10;99.90
3713;DHT22;1872;51.406;6.856;2023-11-19T16:02:15;12.00;99.90
3713;DHT22;1872;51.406;6.856;2023-11-19T16:04:44;12.00;99.90
3713;DHT22;1872;51.406;6.856;2023-11-19T16:07:16;11.90;99.90
3713;DHT22;1872;51.406;6.856;2023-11-19T16:09:41;11.90;99.90
3713;DHT22;1872;51.406;6.856;2023-11-19T16:12:08;11.90;99.90
3713;DHT22;1872;51.406;6.856;2023-11-19T16:14:34;11.80;99.90
3713;DHT22;1872;51.406;6.856;2023-11-19T16:17:06;11.80;99.90
3713;DHT22;1872;51.406;6.856;2023-11-19T16:19:33;11.80;99.90